Terminal Aerodrome Forecast
Issued by NWS Burlington, VT

Home | Current Version | Previous Version | Text Only | Print | Product List | Glossary On
Versions: 1 2 3 4 5 6 7 8 9 10 11 12 13 14 15
000
FTUS41 KBTV 171739
TAFBTV
TAF
KBTV 171739Z 1718/1818 35004KT P6SM FEW040 FEW250
     FM180800 15004KT P6SM OVC100
     FM181200 16005KT 5SM -SN BR OVC035
     FM181300 17005KT 2SM -SN BR OVC025
     FM181500 17007KT 1SM -SN BR OVC020=

USA.gov is the U.S. government's official web portal to all federal, state and local government web resources and services.